createdAt,value
2017-05-10T00:00:51.171Z,4.60
2017-05-10T00:03:17.880Z,4.60
2017-05-10T00:05:44.742Z,4.70
2017-05-10T00:08:11.475Z,4.70
2017-05-10T00:10:38.183Z,4.70
2017-05-10T00:13:05.017Z,4.50
2017-05-10T00:15:31.720Z,4.50
2017-05-10T00:17:58.430Z,4.50
2017-05-10T00:20:25.387Z,4.40
2017-05-10T00:22:52.116Z,4.50
2017-05-10T00:28:10.814Z,4.50
2017-05-10T00:30:37.450Z,4.50
2017-05-10T00:33:04.126Z,4.50
2017-05-10T00:35:38.365Z,4.60
2017-05-10T00:38:05.082Z,4.70
2017-05-10T00:40:31.762Z,4.70
2017-05-10T00:42:59.763Z,4.60
2017-05-10T00:45:26.413Z,4.40
2017-05-10T00:47:53.157Z,4.30
2017-05-10T00:50:19.773Z,4.30
2017-05-10T00:52:46.370Z,4.20
2017-05-10T00:55:13.714Z,4.00
2017-05-10T00:57:40.451Z,4.00
2017-05-10T01:00:07.044Z,4.10
2017-05-10T01:02:33.665Z,4.10
2017-05-10T01:05:01.053Z,4.20
2017-05-10T01:07:27.652Z,4.10
2017-05-10T01:09:54.253Z,4.10
2017-05-10T01:12:20.908Z,4.10
2017-05-10T01:14:47.500Z,4.10
2017-05-10T01:17:14.090Z,4.10
2017-05-10T01:19:40.836Z,4.00
2017-05-10T01:22:07.424Z,4.00
2017-05-10T01:24:34.756Z,3.90
2017-05-10T01:27:01.376Z,3.90
2017-05-10T01:29:27.965Z,3.90
2017-05-10T01:31:54.562Z,3.90
2017-05-10T01:34:21.189Z,3.90
2017-05-10T01:36:47.788Z,4.00
2017-05-10T01:39:15.121Z,4.10
2017-05-10T01:41:41.869Z,4.10
2017-05-10T01:44:08.484Z,4.10
2017-05-10T01:46:35.249Z,4.10
2017-05-10T01:49:01.882Z,4.10
2017-05-10T01:51:28.474Z,4.00
2017-05-10T01:53:55.801Z,3.90
2017-05-10T01:56:22.436Z,3.90
2017-05-10T01:58:49.052Z,3.90
2017-05-10T02:01:15.665Z,3.80
2017-05-10T02:03:43.157Z,3.90
2017-05-10T02:06:09.772Z,3.90
2017-05-10T02:08:36.382Z,3.90
2017-05-10T02:11:03.009Z,3.90
2017-05-10T02:13:29.655Z,3.90
2017-05-10T02:15:56.307Z,3.90
2017-05-10T02:18:23.061Z,3.90
2017-05-10T02:20:49.832Z,3.90
2017-05-10T02:23:16.952Z,3.90
2017-05-10T02:25:43.978Z,3.90
2017-05-10T02:28:10.803Z,3.90
2017-05-10T02:30:37.744Z,3.80
2017-05-10T02:33:05.034Z,3.90
2017-05-10T02:35:32.209Z,3.80
2017-05-10T02:37:59.326Z,3.80
2017-05-10T02:40:26.674Z,3.80
2017-05-10T02:42:54.693Z,3.80
2017-05-10T02:45:21.328Z,3.80
2017-05-10T02:47:48.125Z,3.80
2017-05-10T02:50:15.057Z,3.80
2017-05-10T02:52:41.675Z,3.80
2017-05-10T02:55:08.458Z,3.90
2017-05-10T02:57:36.467Z,3.90
2017-05-10T03:00:03.102Z,4.00
2017-05-10T03:02:29.780Z,3.90
2017-05-10T03:04:56.412Z,3.90
2017-05-10T03:07:37.603Z,3.80
2017-05-10T03:10:21.696Z,3.90
2017-05-10T03:12:51.137Z,3.80
2017-05-10T03:19:20.546Z,3.70
2017-05-10T03:22:14.373Z,3.70
2017-05-10T03:25:14.353Z,3.60
2017-05-10T03:31:14.648Z,3.50
2017-05-10T03:33:42.579Z,3.40
2017-05-10T03:36:09.185Z,3.40
2017-05-10T03:38:35.900Z,3.50
2017-05-10T03:41:02.522Z,3.40
2017-05-10T03:43:29.126Z,3.40
2017-05-10T03:45:55.913Z,3.40
2017-05-10T03:48:22.670Z,3.40
2017-05-10T03:50:49.268Z,3.40
2017-05-10T03:53:16.366Z,3.40
2017-05-10T03:55:43.069Z,3.30
2017-05-10T03:58:10.041Z,3.30
2017-05-10T04:00:36.871Z,3.20
2017-05-10T04:03:04.190Z,3.20
2017-05-10T04:05:30.809Z,3.30
2017-05-10T04:08:10.725Z,3.40
2017-05-10T04:10:37.706Z,3.30
2017-05-10T04:13:05.166Z,3.40
2017-05-10T04:22:18.949Z,3.30
2017-05-10T04:24:50.666Z,3.30
2017-05-10T04:27:17.297Z,3.30
2017-05-10T04:29:47.598Z,3.40
2017-05-10T04:35:09.070Z,3.50
2017-05-10T04:37:36.318Z,3.50
2017-05-10T04:45:17.441Z,3.50
2017-05-10T04:47:47.213Z,3.60
2017-05-10T04:50:13.829Z,3.70
2017-05-10T04:52:40.421Z,3.60
2017-05-10T04:55:07.040Z,3.70
2017-05-10T04:57:33.933Z,3.80
2017-05-10T05:00:00.530Z,3.90
2017-05-10T05:02:27.544Z,4.00
2017-05-10T05:04:54.356Z,4.20
2017-05-10T05:07:27.834Z,4.30
2017-05-10T05:09:56.529Z,4.50
2017-05-10T05:12:33.741Z,4.70
2017-05-10T05:15:14.548Z,5.00
2017-05-10T05:17:43.517Z,5.30
2017-05-10T05:20:12.085Z,5.60
2017-05-10T05:22:39.273Z,6.00
2017-05-10T05:25:07.094Z,6.30
2017-05-10T05:27:34.677Z,6.30
2017-05-10T05:30:02.587Z,6.60
2017-05-10T05:32:31.325Z,6.90
2017-05-10T05:35:00.700Z,7.00
2017-05-10T05:37:28.572Z,7.20
2017-05-10T05:39:55.398Z,7.40
2017-05-10T05:42:22.029Z,7.60
2017-05-10T05:44:48.758Z,8.20
2017-05-10T05:47:15.518Z,8.50
2017-05-10T05:49:42.141Z,8.80
2017-05-10T05:52:20.885Z,9.00
2017-05-10T05:54:47.599Z,8.90
2017-05-10T05:57:15.624Z,9.30
2017-05-10T05:59:43.887Z,9.90
2017-05-10T06:02:11.993Z,10.30
2017-05-10T06:04:40.284Z,10.60
2017-05-10T06:07:08.693Z,10.90
2017-05-10T06:09:36.351Z,10.50
2017-05-10T06:12:04.337Z,10.80
2017-05-10T06:14:39.900Z,11.10
2017-05-10T06:19:41.501Z,11.70
2017-05-10T06:22:12.003Z,11.70
2017-05-10T06:24:39.273Z,12.00
2017-05-10T06:27:06.046Z,12.40
2017-05-10T06:29:33.111Z,12.30
2017-05-10T06:32:00.293Z,12.40
2017-05-10T06:34:27.500Z,12.20
2017-05-10T06:36:54.456Z,12.50
2017-05-10T06:39:21.357Z,12.70
2017-05-10T06:41:48.137Z,12.90
2017-05-10T06:44:15.133Z,12.80
2017-05-10T06:46:42.182Z,13.00
2017-05-10T06:49:09.421Z,13.00
2017-05-10T06:51:36.789Z,12.70
2017-05-10T06:54:04.041Z,12.50
2017-05-10T07:00:23.901Z,12.30
2017-05-10T07:02:51.201Z,11.70
2017-05-10T07:05:18.527Z,11.80
2017-05-10T07:07:46.048Z,12.20
2017-05-10T07:10:13.399Z,12.90
2017-05-10T07:15:35.252Z,13.80
2017-05-10T07:18:03.460Z,13.10
2017-05-10T07:20:30.946Z,12.90
2017-05-10T07:22:58.374Z,13.10
2017-05-10T07:25:25.645Z,13.40
2017-05-10T07:27:52.331Z,13.30
2017-05-10T07:32:55.511Z,13.80
2017-05-10T07:35:22.394Z,13.90
2017-05-10T07:37:49.111Z,13.70
2017-05-10T07:40:15.779Z,13.80
2017-05-10T07:42:42.529Z,13.90
2017-05-10T07:45:09.218Z,14.10
2017-05-10T07:47:51.259Z,14.60
2017-05-10T07:50:17.962Z,14.50
2017-05-10T07:52:45.453Z,14.20
2017-05-10T07:55:12.991Z,14.40
2017-05-10T07:57:39.878Z,14.70
2017-05-10T08:00:06.619Z,14.90
2017-05-10T08:02:33.308Z,15.30
2017-05-10T08:04:59.999Z,15.70
2017-05-10T08:07:26.691Z,16.00
2017-05-10T08:09:53.388Z,15.20
2017-05-10T08:12:22.256Z,15.50
2017-05-10T08:14:48.921Z,15.60
2017-05-10T08:17:19.268Z,15.90
2017-05-10T08:19:46.025Z,16.10
2017-05-10T08:22:12.710Z,15.60
2017-05-10T08:24:40.592Z,15.30
2017-05-10T08:27:07.204Z,15.40
2017-05-10T08:29:33.840Z,15.70
2017-05-10T08:32:01.769Z,16.30
2017-05-10T08:34:28.403Z,16.50
2017-05-10T08:36:55.066Z,15.80
2017-05-10T08:39:21.852Z,16.20
2017-05-10T08:41:48.507Z,16.50
2017-05-10T08:44:15.166Z,16.50
2017-05-10T08:46:41.838Z,16.90
2017-05-10T08:49:08.631Z,16.80
2017-05-10T08:51:35.267Z,17.40
2017-05-10T08:54:01.895Z,18.10
2017-05-10T08:56:28.493Z,18.70
2017-05-10T08:58:55.085Z,19.20
2017-05-10T09:01:21.868Z,19.40
2017-05-10T09:03:48.488Z,19.50
2017-05-10T09:06:15.709Z,19.20
2017-05-10T09:08:42.332Z,17.90
2017-05-10T09:11:08.922Z,17.80
2017-05-10T09:13:35.517Z,18.20
2017-05-10T09:16:02.153Z,17.90
2017-05-10T09:18:28.754Z,17.60
2017-05-10T09:20:55.357Z,17.50
2017-05-10T09:23:22.185Z,17.60
2017-05-10T09:25:48.796Z,17.30
2017-05-10T09:28:15.395Z,17.30
2017-05-10T09:30:42.039Z,17.30
2017-05-10T09:33:09.385Z,17.80
2017-05-10T09:35:35.998Z,18.30
2017-05-10T09:38:02.618Z,18.80
2017-05-10T09:40:29.213Z,18.60
2017-05-10T09:42:55.813Z,17.80
2017-05-10T09:45:22.661Z,17.70
2017-05-10T09:47:49.625Z,17.80
2017-05-10T09:50:16.225Z,17.60
2017-05-10T09:52:43.610Z,17.90
2017-05-10T09:55:10.209Z,18.10
2017-05-10T09:57:36.849Z,18.00
2017-05-10T10:00:03.484Z,18.40
2017-05-10T10:02:30.079Z,18.90
2017-05-10T10:04:56.681Z,19.10
2017-05-10T10:07:23.417Z,19.20
2017-05-10T10:09:50.004Z,19.20
2017-05-10T10:12:16.601Z,19.50
2017-05-10T10:14:43.237Z,19.40
2017-05-10T10:17:09.859Z,19.60
2017-05-10T10:19:36.476Z,19.80
2017-05-10T10:22:03.158Z,19.20
2017-05-10T10:24:29.768Z,19.40
2017-05-10T10:26:56.366Z,19.00
2017-05-10T10:29:24.021Z,18.10
2017-05-10T10:31:50.612Z,18.10
2017-05-10T10:34:17.194Z,17.50
2017-05-10T10:36:45.169Z,17.80
2017-05-10T10:39:11.792Z,17.30
2017-05-10T10:41:38.412Z,17.80
2017-05-10T10:44:05.047Z,18.60
2017-05-10T10:46:38.781Z,19.20
2017-05-10T10:49:05.384Z,19.70
2017-05-10T10:51:34.660Z,19.70
2017-05-10T10:54:01.248Z,18.50
2017-05-10T10:56:27.834Z,18.90
2017-05-10T10:58:54.489Z,19.00
2017-05-10T11:01:21.086Z,18.90
2017-05-10T11:03:47.680Z,19.20
2017-05-10T11:06:14.319Z,19.40
2017-05-10T11:08:47.137Z,19.40
2017-05-10T11:11:14.636Z,19.20
2017-05-10T11:13:41.223Z,19.10
2017-05-10T11:16:07.836Z,19.00
2017-05-10T11:18:34.481Z,19.40
2017-05-10T11:21:01.080Z,19.90
2017-05-10T11:23:27.670Z,19.80
2017-05-10T11:25:54.295Z,19.80
2017-05-10T11:28:20.896Z,20.20
2017-05-10T11:30:47.519Z,20.20
2017-05-10T11:33:15.025Z,20.50
2017-05-10T11:35:41.660Z,20.70
2017-05-10T11:38:08.285Z,20.10
2017-05-10T11:40:34.909Z,19.90
2017-05-10T11:43:01.493Z,19.20
2017-05-10T11:45:28.098Z,19.60
2017-05-10T11:47:56.856Z,20.00
2017-05-10T11:50:23.470Z,20.60
2017-05-10T11:52:50.077Z,21.10
2017-05-10T11:55:24.834Z,21.60
2017-05-10T11:57:59.783Z,21.50
2017-05-10T12:00:26.503Z,21.00
2017-05-10T12:02:53.145Z,20.80
2017-05-10T12:05:19.748Z,21.00
2017-05-10T12:07:46.370Z,20.80
2017-05-10T12:10:12.988Z,20.30
2017-05-10T12:12:39.742Z,20.60
2017-05-10T12:15:06.660Z,20.70
2017-05-10T12:17:34.028Z,21.20
2017-05-10T12:20:00.613Z,21.80
2017-05-10T12:22:27.309Z,22.20
2017-05-10T12:24:54.010Z,22.50
2017-05-10T12:27:20.655Z,21.60
2017-05-10T12:29:47.351Z,22.00
2017-05-10T12:32:13.981Z,22.30
2017-05-10T12:34:40.605Z,22.70
2017-05-10T12:37:14.637Z,21.10
2017-05-10T12:39:42.069Z,21.30
2017-05-10T12:42:08.693Z,21.80
2017-05-10T12:44:35.299Z,22.50
2017-05-10T12:47:02.057Z,23.00
2017-05-10T12:49:28.713Z,23.40
2017-05-10T12:51:55.316Z,23.50
2017-05-10T12:54:22.660Z,23.10
2017-05-10T12:56:50.889Z,22.70
2017-05-10T12:59:17.487Z,23.30
2017-05-10T13:01:44.846Z,23.70
2017-05-10T13:04:12.229Z,23.70
2017-05-10T13:06:38.837Z,23.70
2017-05-10T13:09:05.482Z,23.70
2017-05-10T13:11:32.872Z,23.90
2017-05-10T13:13:59.502Z,23.30
2017-05-10T13:16:26.218Z,23.50
2017-05-10T13:19:00.173Z,23.80
2017-05-10T13:21:26.892Z,23.80
2017-05-10T13:23:54.269Z,24.00
2017-05-10T13:26:20.936Z,23.80
2017-05-10T13:28:47.563Z,23.40
2017-05-10T13:31:14.181Z,23.70
2017-05-10T13:33:41.609Z,22.30
2017-05-10T13:36:08.372Z,21.60
2017-05-10T13:38:34.991Z,21.40
2017-05-10T13:41:03.587Z,21.40
2017-05-10T13:43:30.213Z,22.00
2017-05-10T13:45:56.828Z,22.70
2017-05-10T13:48:25.569Z,23.10
2017-05-10T13:50:52.198Z,23.60
2017-05-10T13:53:18.813Z,24.20
2017-05-10T13:55:45.454Z,23.70
2017-05-10T13:58:12.076Z,23.10
2017-05-10T14:00:39.423Z,22.80
2017-05-10T14:03:14.607Z,23.10
2017-05-10T14:05:41.322Z,23.60
2017-05-10T14:08:07.962Z,24.00
2017-05-10T14:10:35.313Z,24.40
2017-05-10T14:13:02.668Z,24.80
2017-05-10T14:15:30.070Z,24.90
2017-05-10T14:17:56.660Z,24.50
2017-05-10T14:20:23.256Z,24.70
2017-05-10T14:22:49.969Z,25.10
2017-05-10T14:25:17.334Z,25.10
2017-05-10T14:27:43.941Z,25.40
2017-05-10T14:30:10.599Z,25.60
2017-05-10T14:32:37.210Z,25.60
2017-05-10T14:35:03.837Z,25.70
2017-05-10T14:37:30.555Z,25.70
2017-05-10T14:39:57.174Z,25.70
2017-05-10T14:42:23.781Z,25.90
2017-05-10T14:44:50.545Z,26.10
2017-05-10T14:47:31.984Z,26.20
2017-05-10T14:49:58.608Z,26.10
2017-05-10T14:52:25.954Z,25.60
2017-05-10T14:54:53.303Z,25.50
2017-05-10T14:57:19.949Z,25.90
2017-05-10T14:59:46.553Z,26.10
2017-05-10T15:02:13.161Z,26.30
2017-05-10T15:04:39.820Z,26.20
2017-05-10T15:07:06.429Z,26.50
2017-05-10T15:09:33.773Z,26.50
2017-05-10T15:12:00.413Z,26.00
2017-05-10T15:14:27.028Z,25.60
2017-05-10T15:16:53.646Z,25.30
2017-05-10T15:19:20.289Z,25.40
2017-05-10T15:21:46.910Z,25.30
2017-05-10T15:24:14.273Z,25.10
2017-05-10T15:26:41.710Z,25.40
2017-05-10T15:29:08.313Z,25.80
2017-05-10T15:31:34.908Z,25.70
2017-05-10T15:34:02.302Z,25.50
2017-05-10T15:36:28.921Z,25.60
2017-05-10T15:38:56.260Z,25.50
2017-05-10T15:41:22.923Z,25.90
2017-05-10T15:43:50.272Z,25.80
2017-05-10T15:46:17.612Z,25.40
2017-05-10T15:48:46.512Z,25.60
2017-05-10T15:51:13.119Z,25.50
2017-05-10T15:53:39.754Z,25.50
2017-05-10T15:56:06.513Z,25.70
2017-05-10T15:58:33.121Z,25.10
2017-05-10T16:00:59.752Z,24.80
2017-05-10T16:03:27.123Z,24.70
2017-05-10T16:05:53.733Z,25.00
2017-05-10T16:08:20.350Z,25.10
2017-05-10T16:10:47.813Z,25.00
2017-05-10T16:13:14.429Z,25.20
2017-05-10T16:15:41.070Z,24.90
2017-05-10T16:18:07.721Z,25.20
2017-05-10T16:20:34.324Z,25.40
2017-05-10T16:23:01.762Z,25.60
2017-05-10T16:25:28.405Z,24.60
2017-05-10T16:27:55.025Z,24.40
2017-05-10T16:30:21.617Z,24.60
2017-05-10T16:32:56.990Z,24.60
2017-05-10T16:35:31.098Z,24.70
2017-05-10T16:37:57.840Z,24.70
2017-05-10T16:40:24.435Z,24.90
2017-05-10T16:42:51.016Z,24.30
2017-05-10T16:45:18.459Z,24.20
2017-05-10T16:47:45.976Z,24.30
2017-05-10T16:50:12.584Z,24.60
2017-05-10T16:52:41.152Z,24.20
2017-05-10T16:55:08.488Z,24.40
2017-05-10T16:57:35.093Z,24.40
2017-05-10T17:00:01.722Z,24.60
2017-05-10T17:02:28.336Z,24.40
2017-05-10T17:04:55.681Z,23.90
2017-05-10T17:07:29.711Z,23.90
2017-05-10T17:09:57.150Z,23.70
2017-05-10T17:12:23.784Z,23.50
2017-05-10T17:14:50.421Z,23.40
2017-05-10T17:17:17.024Z,23.40
2017-05-10T17:19:43.664Z,23.60
2017-05-10T17:22:10.305Z,23.70
2017-05-10T17:24:36.915Z,23.60
2017-05-10T17:27:03.532Z,23.70
2017-05-10T17:29:31.887Z,23.60
2017-05-10T17:31:58.499Z,23.00
2017-05-10T17:34:25.841Z,22.60
2017-05-10T17:36:52.576Z,22.50
2017-05-10T17:39:19.217Z,22.20
2017-05-10T17:41:45.844Z,21.60
2017-05-10T17:44:12.522Z,21.10
2017-05-10T17:46:54.066Z,20.70
2017-05-10T17:49:20.823Z,20.40
2017-05-10T17:51:47.445Z,20.10
2017-05-10T17:54:14.077Z,19.90
2017-05-10T17:56:40.734Z,19.70
2017-05-10T17:59:07.459Z,19.50
2017-05-10T18:01:34.088Z,19.30
2017-05-10T18:04:01.604Z,19.00
2017-05-10T18:06:28.221Z,18.90
2017-05-10T18:08:54.863Z,18.90
2017-05-10T18:11:22.505Z,18.70
2017-05-10T18:13:49.872Z,18.70
2017-05-10T18:16:18.895Z,18.70
2017-05-10T18:18:45.541Z,18.50
2017-05-10T18:21:12.222Z,18.30
2017-05-10T18:23:38.843Z,18.20
2017-05-10T18:26:13.063Z,18.20
2017-05-10T18:28:47.502Z,18.10
2017-05-10T18:31:14.315Z,17.90
2017-05-10T18:33:40.981Z,17.80
2017-05-10T18:36:07.635Z,17.70
2017-05-10T18:38:34.850Z,17.70
2017-05-10T18:41:01.491Z,17.50
2017-05-10T18:43:28.123Z,17.40
2017-05-10T18:45:54.771Z,17.30
2017-05-10T18:48:21.487Z,17.10
2017-05-10T18:50:48.481Z,17.00
2017-05-10T18:53:15.142Z,17.00
2017-05-10T18:56:00.511Z,16.90
2017-05-10T18:58:27.234Z,16.80
2017-05-10T19:00:55.090Z,16.60
2017-05-10T19:03:21.801Z,16.50
2017-05-10T19:08:26.663Z,16.40
2017-05-10T19:10:57.351Z,16.20
2017-05-10T19:13:24.015Z,16.10
2017-05-10T19:15:51.037Z,16.00
2017-05-10T19:18:18.448Z,15.90
2017-05-10T19:20:48.132Z,15.80
2017-05-10T19:23:14.776Z,15.60
2017-05-10T19:25:41.390Z,15.30
2017-05-10T19:28:10.086Z,15.10
2017-05-10T19:30:36.767Z,15.00
2017-05-10T19:33:03.439Z,14.90
2017-05-10T19:35:30.187Z,14.80
2017-05-10T19:37:56.849Z,14.60
2017-05-10T19:40:24.433Z,14.50
2017-05-10T19:42:58.754Z,14.40
2017-05-10T19:45:33.517Z,14.40
2017-05-10T19:48:05.196Z,14.20
2017-05-10T19:50:31.800Z,14.20
2017-05-10T19:53:00.201Z,14.10
2017-05-10T19:55:27.045Z,14.00
2017-05-10T19:57:54.844Z,13.70
2017-05-10T20:00:21.802Z,13.60
2017-05-10T20:02:48.817Z,13.50
2017-05-10T20:05:16.446Z,13.40
2017-05-10T20:08:32.547Z,13.40
2017-05-10T20:11:01.260Z,13.30
2017-05-10T20:13:28.025Z,13.20
2017-05-10T20:15:54.762Z,13.00
2017-05-10T20:18:21.533Z,12.90
2017-05-10T20:20:48.993Z,12.70
2017-05-10T20:23:15.717Z,12.50
2017-05-10T20:25:42.479Z,12.40
2017-05-10T20:28:09.209Z,12.20
2017-05-10T20:30:35.808Z,12.30
2017-05-10T20:33:03.173Z,12.30
2017-05-10T20:35:30.500Z,12.40
2017-05-10T20:37:57.111Z,12.30
2017-05-10T20:40:23.897Z,12.10
2017-05-10T20:42:50.500Z,12.00
2017-05-10T20:45:17.089Z,11.90
2017-05-10T20:47:43.941Z,11.70
2017-05-10T20:50:10.529Z,11.60
2017-05-10T20:52:37.125Z,11.60
2017-05-10T20:55:04.653Z,11.60
2017-05-10T20:57:31.225Z,11.60
2017-05-10T20:59:59.100Z,11.50
2017-05-10T21:02:25.720Z,11.40
2017-05-10T21:04:52.319Z,11.40
2017-05-10T21:07:18.902Z,11.40
2017-05-10T21:09:45.528Z,11.30
2017-05-10T21:12:12.120Z,11.20
2017-05-10T21:14:39.446Z,11.10
2017-05-10T21:17:06.908Z,11.20
2017-05-10T21:19:33.485Z,11.10
2017-05-10T21:22:00.822Z,11.00
2017-05-10T21:24:27.453Z,11.00
2017-05-10T21:26:54.031Z,11.00
2017-05-10T21:29:21.378Z,10.90
2017-05-10T21:31:47.996Z,10.80
2017-05-10T21:34:14.579Z,10.90
2017-05-10T21:36:41.900Z,10.80
2017-05-10T21:39:10.281Z,10.60
2017-05-10T21:41:36.867Z,10.50
2017-05-10T21:44:03.450Z,10.50
2017-05-10T21:46:30.065Z,10.50
2017-05-10T21:48:56.800Z,10.60
2017-05-10T21:51:23.391Z,10.60
2017-05-10T21:53:50.008Z,10.70
2017-05-10T21:56:16.596Z,10.70
2017-05-10T21:58:43.181Z,10.60
2017-05-10T22:01:16.969Z,10.50
2017-05-10T22:03:46.021Z,10.50
2017-05-10T22:06:12.624Z,10.40
2017-05-10T22:08:39.242Z,10.40
2017-05-10T22:11:06.557Z,10.40
2017-05-10T22:13:33.185Z,10.30
2017-05-10T22:15:59.772Z,10.30
2017-05-10T22:18:26.353Z,10.30
2017-05-10T22:20:53.090Z,10.30
2017-05-10T22:23:19.670Z,10.30
2017-05-10T22:25:46.252Z,10.30
2017-05-10T22:28:12.873Z,10.30
2017-05-10T22:30:39.460Z,10.30
2017-05-10T22:33:06.053Z,10.20
2017-05-10T22:35:32.665Z,10.20
2017-05-10T22:37:59.252Z,10.30
2017-05-10T22:40:25.849Z,10.30
2017-05-10T22:42:56.097Z,10.40
2017-05-10T22:45:22.678Z,10.40
2017-05-10T22:47:51.912Z,10.50
2017-05-10T22:50:18.536Z,10.60
2017-05-10T22:52:45.856Z,10.70
2017-05-10T22:55:12.436Z,11.00
2017-05-10T22:57:39.789Z,11.10
2017-05-10T23:00:07.105Z,11.20
2017-05-10T23:02:33.693Z,11.40
2017-05-10T23:05:01.929Z,11.50
2017-05-10T23:07:28.513Z,11.70
2017-05-10T23:09:55.829Z,11.70
2017-05-10T23:12:22.450Z,11.70
2017-05-10T23:14:49.029Z,11.70
2017-05-10T23:17:15.609Z,11.60
2017-05-10T23:19:43.111Z,11.60
2017-05-10T23:22:09.693Z,11.60
2017-05-10T23:24:36.268Z,11.40
2017-05-10T23:27:02.873Z,11.20
2017-05-10T23:29:29.453Z,11.10
2017-05-10T23:31:56.027Z,11.10
2017-05-10T23:34:22.649Z,11.00
2017-05-10T23:36:49.243Z,11.00
2017-05-10T23:39:15.816Z,10.90
2017-05-10T23:41:43.023Z,10.80
2017-05-10T23:44:09.631Z,10.70
2017-05-10T23:46:36.216Z,10.80
2017-05-10T23:49:02.970Z,10.80
2017-05-10T23:51:29.553Z,10.80
2017-05-10T23:53:56.141Z,10.80
2017-05-10T23:56:22.761Z,10.90
2017-05-10T23:58:49.357Z,11.10
